sensor_id;sensor_type;location;lat;lon;timestamp;P1;durP1;ratioP1;P2;durP2;ratioP2
22628;SDS011;11481;53.694;9.910;2022-12-07T00:01:33;4.65;;;2.25;;
22628;SDS011;11481;53.694;9.910;2022-12-07T00:04:02;3.40;;;2.25;;
22628;SDS011;11481;53.694;9.910;2022-12-07T00:06:35;5.18;;;2.13;;
22628;SDS011;11481;53.694;9.910;2022-12-07T00:09:04;3.15;;;2.00;;
22628;SDS011;11481;53.694;9.910;2022-12-07T00:11:32;3.67;;;1.85;;
22628;SDS011;11481;53.694;9.910;2022-12-07T00:14:00;3.03;;;2.45;;
22628;SDS011;11481;53.694;9.910;2022-12-07T00:16:30;4.00;;;1.35;;
22628;SDS011;11481;53.694;9.910;2022-12-07T00:18:59;3.88;;;3.08;;
22628;SDS011;11481;53.694;9.910;2022-12-07T00:21:27;3.80;;;2.78;;
22628;SDS011;11481;53.694;9.910;2022-12-07T00:23:55;3.15;;;2.47;;
22628;SDS011;11481;53.694;9.910;2022-12-07T00:26:24;2.97;;;1.58;;
22628;SDS011;11481;53.694;9.910;2022-12-07T00:28:54;3.97;;;3.05;;
22628;SDS011;11481;53.694;9.910;2022-12-07T00:31:23;2.22;;;1.70;;
22628;SDS011;11481;53.694;9.910;2022-12-07T00:33:52;2.38;;;1.92;;
22628;SDS011;11481;53.694;9.910;2022-12-07T00:36:20;4.95;;;2.40;;
22628;SDS011;11481;53.694;9.910;2022-12-07T00:38:52;8.85;;;2.85;;
22628;SDS011;11481;53.694;9.910;2022-12-07T00:41:21;2.00;;;1.90;;
22628;SDS011;11481;53.694;9.910;2022-12-07T00:43:50;5.00;;;2.22;;
22628;SDS011;11481;53.694;9.910;2022-12-07T00:46:17;3.20;;;1.45;;
22628;SDS011;11481;53.694;9.910;2022-12-07T00:48:45;2.85;;;2.58;;
22628;SDS011;11481;53.694;9.910;2022-12-07T00:51:13;3.08;;;2.13;;
22628;SDS011;11481;53.694;9.910;2022-12-07T00:53:42;2.45;;;2.25;;
22628;SDS011;11481;53.694;9.910;2022-12-07T00:56:28;1.33;;;1.08;;
22628;SDS011;11481;53.694;9.910;2022-12-07T00:59:02;3.72;;;2.38;;
22628;SDS011;11481;53.694;9.910;2022-12-07T01:01:30;2.47;;;1.52;;
22628;SDS011;11481;53.694;9.910;2022-12-07T01:03:59;3.63;;;2.47;;
22628;SDS011;11481;53.694;9.910;2022-12-07T01:06:29;2.35;;;2.10;;
22628;SDS011;11481;53.694;9.910;2022-12-07T01:08:56;4.32;;;2.08;;
22628;SDS011;11481;53.694;9.910;2022-12-07T01:11:25;1.05;;;0.95;;
22628;SDS011;11481;53.694;9.910;2022-12-07T01:13:54;4.43;;;1.83;;
22628;SDS011;11481;53.694;9.910;2022-12-07T01:16:23;2.78;;;1.90;;
22628;SDS011;11481;53.694;9.910;2022-12-07T01:18:53;4.53;;;1.65;;
22628;SDS011;11481;53.694;9.910;2022-12-07T01:21:22;1.85;;;1.55;;
22628;SDS011;11481;53.694;9.910;2022-12-07T01:23:50;3.85;;;2.60;;
22628;SDS011;11481;53.694;9.910;2022-12-07T01:26:19;2.15;;;1.85;;
22628;SDS011;11481;53.694;9.910;2022-12-07T01:28:47;1.42;;;1.02;;
22628;SDS011;11481;53.694;9.910;2022-12-07T01:31:15;3.33;;;1.90;;
22628;SDS011;11481;53.694;9.910;2022-12-07T01:33:47;8.00;;;1.25;;
22628;SDS011;11481;53.694;9.910;2022-12-07T01:36:20;1.73;;;1.63;;
22628;SDS011;11481;53.694;9.910;2022-12-07T01:38:49;1.60;;;1.50;;
22628;SDS011;11481;53.694;9.910;2022-12-07T01:41:18;7.93;;;1.73;;
22628;SDS011;11481;53.694;9.910;2022-12-07T01:46:40;1.45;;;1.30;;
22628;SDS011;11481;53.694;9.910;2022-12-07T01:49:11;4.43;;;1.95;;
22628;SDS011;11481;53.694;9.910;2022-12-07T01:51:42;1.88;;;1.60;;
22628;SDS011;11481;53.694;9.910;2022-12-07T01:54:11;2.95;;;2.58;;
22628;SDS011;11481;53.694;9.910;2022-12-07T01:56:40;3.08;;;1.70;;
22628;SDS011;11481;53.694;9.910;2022-12-07T01:59:11;3.38;;;1.33;;
22628;SDS011;11481;53.694;9.910;2022-12-07T02:04:21;1.58;;;0.95;;
22628;SDS011;11481;53.694;9.910;2022-12-07T02:06:48;1.70;;;1.25;;
22628;SDS011;11481;53.694;9.910;2022-12-07T02:09:16;1.73;;;1.25;;
22628;SDS011;11481;53.694;9.910;2022-12-07T02:11:43;6.28;;;0.90;;
22628;SDS011;11481;53.694;9.910;2022-12-07T02:14:09;1.00;;;0.90;;
22628;SDS011;11481;53.694;9.910;2022-12-07T02:16:38;1.42;;;0.98;;
22628;SDS011;11481;53.694;9.910;2022-12-07T02:19:27;1.92;;;1.55;;
22628;SDS011;11481;53.694;9.910;2022-12-07T02:22:31;1.08;;;1.00;;
22628;SDS011;11481;53.694;9.910;2022-12-07T02:30:44;24.10;;;2.35;;
22628;SDS011;11481;53.694;9.910;2022-12-07T02:33:19;1.80;;;1.30;;
22628;SDS011;11481;53.694;9.910;2022-12-07T02:36:02;0.80;;;0.80;;
22628;SDS011;11481;53.694;9.910;2022-12-07T02:38:51;1.08;;;0.60;;
22628;SDS011;11481;53.694;9.910;2022-12-07T02:41:26;2.53;;;0.80;;
22628;SDS011;11481;53.694;9.910;2022-12-07T02:44:12;4.20;;;0.47;;
22628;SDS011;11481;53.694;9.910;2022-12-07T02:46:44;0.35;;;0.30;;
22628;SDS011;11481;53.694;9.910;2022-12-07T02:49:16;0.55;;;0.30;;
22628;SDS011;11481;53.694;9.910;2022-12-07T02:51:45;0.30;;;0.30;;
22628;SDS011;11481;53.694;9.910;2022-12-07T02:54:17;0.45;;;0.45;;
22628;SDS011;11481;53.694;9.910;2022-12-07T03:12:43;0.95;;;0.25;;
22628;SDS011;11481;53.694;9.910;2022-12-07T03:15:25;0.70;;;0.55;;
22628;SDS011;11481;53.694;9.910;2022-12-07T03:17:57;5.28;;;0.32;;
22628;SDS011;11481;53.694;9.910;2022-12-07T03:20:27;0.98;;;0.45;;
22628;SDS011;11481;53.694;9.910;2022-12-07T03:22:56;0.22;;;0.15;;
22628;SDS011;11481;53.694;9.910;2022-12-07T03:25:24;0.10;;;0.00;;
22628;SDS011;11481;53.694;9.910;2022-12-07T03:27:59;0.05;;;0.05;;
22628;SDS011;11481;53.694;9.910;2022-12-07T03:30:40;0.08;;;0.08;;
22628;SDS011;11481;53.694;9.910;2022-12-07T03:33:13;0.13;;;0.10;;
22628;SDS011;11481;53.694;9.910;2022-12-07T03:36:09;0.00;;;0.00;;
22628;SDS011;11481;53.694;9.910;2022-12-07T03:38:42;0.25;;;0.25;;
22628;SDS011;11481;53.694;9.910;2022-12-07T03:41:16;0.50;;;0.40;;
22628;SDS011;11481;53.694;9.910;2022-12-07T03:43:49;0.00;;;0.00;;
22628;SDS011;11481;53.694;9.910;2022-12-07T03:46:17;0.90;;;0.32;;
22628;SDS011;11481;53.694;9.910;2022-12-07T03:49:06;1.10;;;0.60;;
22628;SDS011;11481;53.694;9.910;2022-12-07T03:57:26;1.35;;;0.25;;
22628;SDS011;11481;53.694;9.910;2022-12-07T03:59:55;0.60;;;0.32;;
22628;SDS011;11481;53.694;9.910;2022-12-07T04:02:24;0.68;;;0.30;;
22628;SDS011;11481;53.694;9.910;2022-12-07T04:04:54;0.17;;;0.17;;
22628;SDS011;11481;53.694;9.910;2022-12-07T04:07:22;0.20;;;0.20;;
22628;SDS011;11481;53.694;9.910;2022-12-07T04:09:48;0.75;;;0.40;;
22628;SDS011;11481;53.694;9.910;2022-12-07T04:12:15;0.13;;;0.13;;
22628;SDS011;11481;53.694;9.910;2022-12-07T04:14:42;1.70;;;0.80;;
22628;SDS011;11481;53.694;9.910;2022-12-07T04:17:08;0.00;;;0.00;;
22628;SDS011;11481;53.694;9.910;2022-12-07T04:19:35;0.10;;;0.10;;
22628;SDS011;11481;53.694;9.910;2022-12-07T04:22:03;1.75;;;0.40;;
22628;SDS011;11481;53.694;9.910;2022-12-07T04:24:30;0.20;;;0.20;;
22628;SDS011;11481;53.694;9.910;2022-12-07T04:26:57;0.52;;;0.30;;
22628;SDS011;11481;53.694;9.910;2022-12-07T04:29:24;0.30;;;0.30;;
22628;SDS011;11481;53.694;9.910;2022-12-07T04:31:51;0.22;;;0.22;;
22628;SDS011;11481;53.694;9.910;2022-12-07T04:34:19;0.10;;;0.10;;
22628;SDS011;11481;53.694;9.910;2022-12-07T04:36:45;0.20;;;0.15;;
22628;SDS011;11481;53.694;9.910;2022-12-07T04:39:17;0.10;;;0.10;;
22628;SDS011;11481;53.694;9.910;2022-12-07T04:41:48;1.13;;;0.22;;
22628;SDS011;11481;53.694;9.910;2022-12-07T04:44:15;0.43;;;0.40;;
22628;SDS011;11481;53.694;9.910;2022-12-07T04:46:43;0.25;;;0.25;;
22628;SDS011;11481;53.694;9.910;2022-12-07T04:49:10;1.77;;;0.90;;
22628;SDS011;11481;53.694;9.910;2022-12-07T04:51:37;0.10;;;0.10;;
22628;SDS011;11481;53.694;9.910;2022-12-07T04:54:05;0.40;;;0.35;;
22628;SDS011;11481;53.694;9.910;2022-12-07T04:56:32;3.40;;;0.35;;
22628;SDS011;11481;53.694;9.910;2022-12-07T04:59:01;1.73;;;0.82;;
22628;SDS011;11481;53.694;9.910;2022-12-07T05:01:29;0.17;;;0.10;;
22628;SDS011;11481;53.694;9.910;2022-12-07T05:03:56;0.57;;;0.57;;
22628;SDS011;11481;53.694;9.910;2022-12-07T05:06:23;0.22;;;0.22;;
22628;SDS011;11481;53.694;9.910;2022-12-07T05:08:50;0.70;;;0.70;;
22628;SDS011;11481;53.694;9.910;2022-12-07T05:11:17;0.38;;;0.32;;
22628;SDS011;11481;53.694;9.910;2022-12-07T05:14:03;0.55;;;0.50;;
22628;SDS011;11481;53.694;9.910;2022-12-07T05:16:35;0.65;;;0.35;;
22628;SDS011;11481;53.694;9.910;2022-12-07T05:19:04;0.35;;;0.35;;
22628;SDS011;11481;53.694;9.910;2022-12-07T05:21:31;0.57;;;0.57;;
22628;SDS011;11481;53.694;9.910;2022-12-07T05:23:58;1.23;;;0.90;;
22628;SDS011;11481;53.694;9.910;2022-12-07T05:26:25;3.78;;;1.23;;
22628;SDS011;11481;53.694;9.910;2022-12-07T05:28:55;0.57;;;0.47;;
22628;SDS011;11481;53.694;9.910;2022-12-07T05:31:23;0.10;;;0.10;;
22628;SDS011;11481;53.694;9.910;2022-12-07T05:33:51;1.02;;;0.43;;
22628;SDS011;11481;53.694;9.910;2022-12-07T05:36:20;0.25;;;0.20;;
22628;SDS011;11481;53.694;9.910;2022-12-07T05:38:48;1.50;;;0.93;;
22628;SDS011;11481;53.694;9.910;2022-12-07T05:41:15;0.45;;;0.45;;
22628;SDS011;11481;53.694;9.910;2022-12-07T05:44:04;0.90;;;0.63;;
22628;SDS011;11481;53.694;9.910;2022-12-07T05:46:31;1.92;;;1.58;;
22628;SDS011;11481;53.694;9.910;2022-12-07T05:48:58;0.30;;;0.30;;
22628;SDS011;11481;53.694;9.910;2022-12-07T05:51:25;0.68;;;0.35;;
22628;SDS011;11481;53.694;9.910;2022-12-07T05:53:52;0.20;;;0.20;;
22628;SDS011;11481;53.694;9.910;2022-12-07T05:56:19;1.65;;;0.47;;
22628;SDS011;11481;53.694;9.910;2022-12-07T05:58:45;0.20;;;0.20;;
22628;SDS011;11481;53.694;9.910;2022-12-07T06:01:31;0.10;;;0.10;;
22628;SDS011;11481;53.694;9.910;2022-12-07T06:03:57;0.90;;;0.60;;
22628;SDS011;11481;53.694;9.910;2022-12-07T06:06:24;0.15;;;0.15;;
22628;SDS011;11481;53.694;9.910;2022-12-07T06:08:51;0.90;;;0.70;;
22628;SDS011;11481;53.694;9.910;2022-12-07T06:11:18;0.35;;;0.35;;
22628;SDS011;11481;53.694;9.910;2022-12-07T06:14:03;0.82;;;0.40;;
22628;SDS011;11481;53.694;9.910;2022-12-07T06:16:30;1.25;;;0.52;;
22628;SDS011;11481;53.694;9.910;2022-12-07T06:18:56;2.13;;;0.15;;
22628;SDS011;11481;53.694;9.910;2022-12-07T06:21:23;0.25;;;0.25;;
22628;SDS011;11481;53.694;9.910;2022-12-07T06:23:52;0.60;;;0.57;;
22628;SDS011;11481;53.694;9.910;2022-12-07T06:26:19;0.98;;;0.93;;
22628;SDS011;11481;53.694;9.910;2022-12-07T06:28:46;0.95;;;0.32;;
22628;SDS011;11481;53.694;9.910;2022-12-07T06:31:12;0.70;;;0.70;;
22628;SDS011;11481;53.694;9.910;2022-12-07T06:33:39;0.32;;;0.08;;
22628;SDS011;11481;53.694;9.910;2022-12-07T06:36:07;1.17;;;0.63;;
22628;SDS011;11481;53.694;9.910;2022-12-07T06:38:34;0.35;;;0.30;;
22628;SDS011;11481;53.694;9.910;2022-12-07T06:41:01;0.20;;;0.20;;
22628;SDS011;11481;53.694;9.910;2022-12-07T06:43:28;0.05;;;0.05;;
22628;SDS011;11481;53.694;9.910;2022-12-07T06:45:55;1.02;;;0.80;;
22628;SDS011;11481;53.694;9.910;2022-12-07T06:48:22;0.25;;;0.10;;
22628;SDS011;11481;53.694;9.910;2022-12-07T06:50:49;0.85;;;0.85;;
22628;SDS011;11481;53.694;9.910;2022-12-07T06:53:20;0.10;;;0.10;;
22628;SDS011;11481;53.694;9.910;2022-12-07T06:55:47;0.30;;;0.30;;
22628;SDS011;11481;53.694;9.910;2022-12-07T06:58:14;0.90;;;0.80;;
22628;SDS011;11481;53.694;9.910;2022-12-07T07:00:42;0.65;;;0.17;;
22628;SDS011;11481;53.694;9.910;2022-12-07T07:03:09;0.50;;;0.32;;
22628;SDS011;11481;53.694;9.910;2022-12-07T07:05:36;0.00;;;0.00;;
22628;SDS011;11481;53.694;9.910;2022-12-07T07:08:03;1.30;;;0.50;;
22628;SDS011;11481;53.694;9.910;2022-12-07T07:10:47;0.03;;;0.03;;
22628;SDS011;11481;53.694;9.910;2022-12-07T07:13:14;0.30;;;0.30;;
22628;SDS011;11481;53.694;9.910;2022-12-07T07:15:41;1.35;;;0.60;;
22628;SDS011;11481;53.694;9.910;2022-12-07T07:18:08;0.20;;;0.20;;
22628;SDS011;11481;53.694;9.910;2022-12-07T07:20:35;0.35;;;0.32;;
22628;SDS011;11481;53.694;9.910;2022-12-07T07:23:02;0.22;;;0.22;;
22628;SDS011;11481;53.694;9.910;2022-12-07T07:25:29;0.43;;;0.25;;
22628;SDS011;11481;53.694;9.910;2022-12-07T07:27:56;0.08;;;0.08;;
22628;SDS011;11481;53.694;9.910;2022-12-07T07:30:23;0.00;;;0.00;;
22628;SDS011;11481;53.694;9.910;2022-12-07T07:32:50;1.55;;;0.38;;
22628;SDS011;11481;53.694;9.910;2022-12-07T07:35:17;0.73;;;0.47;;
22628;SDS011;11481;53.694;9.910;2022-12-07T07:37:43;1.30;;;0.50;;
22628;SDS011;11481;53.694;9.910;2022-12-07T07:40:10;0.00;;;0.00;;
22628;SDS011;11481;53.694;9.910;2022-12-07T07:42:37;0.10;;;0.10;;
22628;SDS011;11481;53.694;9.910;2022-12-07T07:45:04;1.27;;;0.82;;
22628;SDS011;11481;53.694;9.910;2022-12-07T07:47:31;0.82;;;0.28;;
22628;SDS011;11481;53.694;9.910;2022-12-07T07:49:58;0.10;;;0.10;;
22628;SDS011;11481;53.694;9.910;2022-12-07T07:52:26;1.10;;;0.55;;
22628;SDS011;11481;53.694;9.910;2022-12-07T07:54:53;0.00;;;0.00;;
22628;SDS011;11481;53.694;9.910;2022-12-07T07:57:19;0.30;;;0.30;;
22628;SDS011;11481;53.694;9.910;2022-12-07T07:59:46;0.47;;;0.45;;
22628;SDS011;11481;53.694;9.910;2022-12-07T08:02:13;0.00;;;0.00;;
22628;SDS011;11481;53.694;9.910;2022-12-07T08:04:42;0.55;;;0.30;;
22628;SDS011;11481;53.694;9.910;2022-12-07T08:07:08;0.30;;;0.20;;
22628;SDS011;11481;53.694;9.910;2022-12-07T08:09:35;0.45;;;0.20;;
22628;SDS011;11481;53.694;9.910;2022-12-07T08:12:02;0.00;;;0.00;;
22628;SDS011;11481;53.694;9.910;2022-12-07T08:14:29;0.38;;;0.38;;
22628;SDS011;11481;53.694;9.910;2022-12-07T08:16:55;0.60;;;0.10;;
22628;SDS011;11481;53.694;9.910;2022-12-07T08:19:22;0.30;;;0.30;;
22628;SDS011;11481;53.694;9.910;2022-12-07T08:21:49;0.30;;;0.28;;
22628;SDS011;11481;53.694;9.910;2022-12-07T08:24:16;0.45;;;0.32;;
22628;SDS011;11481;53.694;9.910;2022-12-07T08:26:43;2.10;;;0.43;;
22628;SDS011;11481;53.694;9.910;2022-12-07T08:29:09;0.32;;;0.10;;
22628;SDS011;11481;53.694;9.910;2022-12-07T08:31:36;0.00;;;0.00;;
22628;SDS011;11481;53.694;9.910;2022-12-07T08:34:04;0.57;;;0.30;;
22628;SDS011;11481;53.694;9.910;2022-12-07T08:36:30;0.32;;;0.30;;
22628;SDS011;11481;53.694;9.910;2022-12-07T08:38:57;0.10;;;0.10;;
22628;SDS011;11481;53.694;9.910;2022-12-07T08:41:43;0.10;;;0.10;;
22628;SDS011;11481;53.694;9.910;2022-12-07T08:44:10;0.55;;;0.35;;
22628;SDS011;11481;53.694;9.910;2022-12-07T08:46:41;0.90;;;0.55;;
22628;SDS011;11481;53.694;9.910;2022-12-07T08:49:18;0.90;;;0.45;;
22628;SDS011;11481;53.694;9.910;2022-12-07T08:51:49;0.05;;;0.05;;
22628;SDS011;11481;53.694;9.910;2022-12-07T08:54:16;0.20;;;0.20;;
22628;SDS011;11481;53.694;9.910;2022-12-07T08:56:45;0.68;;;0.60;;
22628;SDS011;11481;53.694;9.910;2022-12-07T08:59:19;1.10;;;0.52;;
22628;SDS011;11481;53.694;9.910;2022-12-07T09:01:46;0.17;;;0.03;;
22628;SDS011;11481;53.694;9.910;2022-12-07T09:04:13;1.75;;;0.45;;
22628;SDS011;11481;53.694;9.910;2022-12-07T09:06:41;0.00;;;0.00;;
22628;SDS011;11481;53.694;9.910;2022-12-07T09:09:09;0.00;;;0.00;;
22628;SDS011;11481;53.694;9.910;2022-12-07T09:11:36;0.20;;;0.10;;
22628;SDS011;11481;53.694;9.910;2022-12-07T09:14:03;0.20;;;0.20;;
22628;SDS011;11481;53.694;9.910;2022-12-07T09:16:30;0.00;;;0.00;;
22628;SDS011;11481;53.694;9.910;2022-12-07T09:18:57;0.28;;;0.28;;
22628;SDS011;11481;53.694;9.910;2022-12-07T09:21:23;0.25;;;0.20;;
22628;SDS011;11481;53.694;9.910;2022-12-07T09:23:50;0.40;;;0.22;;
22628;SDS011;11481;53.694;9.910;2022-12-07T09:26:17;0.75;;;0.47;;
22628;SDS011;11481;53.694;9.910;2022-12-07T09:28:43;1.42;;;1.33;;
22628;SDS011;11481;53.694;9.910;2022-12-07T09:31:10;0.43;;;0.43;;
22628;SDS011;11481;53.694;9.910;2022-12-07T09:33:52;0.32;;;0.28;;
22628;SDS011;11481;53.694;9.910;2022-12-07T09:36:23;0.15;;;0.15;;
22628;SDS011;11481;53.694;9.910;2022-12-07T09:38:50;2.20;;;0.60;;
22628;SDS011;11481;53.694;9.910;2022-12-07T09:41:17;0.55;;;0.43;;
22628;SDS011;11481;53.694;9.910;2022-12-07T09:43:44;0.10;;;0.10;;
22628;SDS011;11481;53.694;9.910;2022-12-07T09:46:13;0.30;;;0.20;;
22628;SDS011;11481;53.694;9.910;2022-12-07T09:48:44;1.77;;;0.52;;
22628;SDS011;11481;53.694;9.910;2022-12-07T09:53:48;0.30;;;0.30;;
22628;SDS011;11481;53.694;9.910;2022-12-07T09:56:16;0.30;;;0.20;;
22628;SDS011;11481;53.694;9.910;2022-12-07T09:58:45;0.22;;;0.10;;
22628;SDS011;11481;53.694;9.910;2022-12-07T10:01:13;0.10;;;0.10;;
22628;SDS011;11481;53.694;9.910;2022-12-07T10:03:50;0.08;;;0.08;;
22628;SDS011;11481;53.694;9.910;2022-12-07T10:06:18;2.08;;;0.70;;
22628;SDS011;11481;53.694;9.910;2022-12-07T10:08:46;0.00;;;0.00;;
22628;SDS011;11481;53.694;9.910;2022-12-07T10:11:13;0.00;;;0.00;;
22628;SDS011;11481;53.694;9.910;2022-12-07T10:13:49;4.85;;;1.08;;
22628;SDS011;11481;53.694;9.910;2022-12-07T10:18:50;0.22;;;0.22;;
22628;SDS011;11481;53.694;9.910;2022-12-07T10:21:18;0.10;;;0.10;;
22628;SDS011;11481;53.694;9.910;2022-12-07T10:24:04;1.30;;;0.50;;
22628;SDS011;11481;53.694;9.910;2022-12-07T10:29:17;0.10;;;0.10;;
22628;SDS011;11481;53.694;9.910;2022-12-07T10:32:00;2.65;;;0.75;;
22628;SDS011;11481;53.694;9.910;2022-12-07T10:34:33;0.08;;;0.08;;
22628;SDS011;11481;53.694;9.910;2022-12-07T10:37:15;3.13;;;1.20;;
22628;SDS011;11481;53.694;9.910;2022-12-07T10:39:47;0.10;;;0.10;;
22628;SDS011;11481;53.694;9.910;2022-12-07T10:42:23;1.02;;;0.43;;
22628;SDS011;11481;53.694;9.910;2022-12-07T10:53:02;0.20;;;0.20;;
22628;SDS011;11481;53.694;9.910;2022-12-07T10:55:51;0.08;;;0.08;;
22628;SDS011;11481;53.694;9.910;2022-12-07T10:58:42;0.00;;;0.00;;
22628;SDS011;11481;53.694;9.910;2022-12-07T11:01:39;0.10;;;0.10;;
22628;SDS011;11481;53.694;9.910;2022-12-07T11:04:13;0.68;;;0.55;;
22628;SDS011;11481;53.694;9.910;2022-12-07T11:10:00;0.20;;;0.20;;
22628;SDS011;11481;53.694;9.910;2022-12-07T11:18:35;0.10;;;0.10;;
22628;SDS011;11481;53.694;9.910;2022-12-07T11:29:25;0.20;;;0.20;;
22628;SDS011;11481;53.694;9.910;2022-12-07T11:37:49;0.00;;;0.00;;
22628;SDS011;11481;53.694;9.910;2022-12-07T11:40:29;0.00;;;0.00;;
22628;SDS011;11481;53.694;9.910;2022-12-07T11:43:07;0.45;;;0.45;;
22628;SDS011;11481;53.694;9.910;2022-12-07T11:45:50;0.10;;;0.10;;
22628;SDS011;11481;53.694;9.910;2022-12-07T11:51:01;0.90;;;0.52;;
22628;SDS011;11481;53.694;9.910;2022-12-07T11:53:35;2.55;;;1.17;;
22628;SDS011;11481;53.694;9.910;2022-12-07T11:56:14;0.43;;;0.43;;
22628;SDS011;11481;53.694;9.910;2022-12-07T12:06:37;0.00;;;0.00;;
22628;SDS011;11481;53.694;9.910;2022-12-07T12:12:04;0.30;;;0.30;;
22628;SDS011;11481;53.694;9.910;2022-12-07T12:18:12;0.00;;;0.00;;
22628;SDS011;11481;53.694;9.910;2022-12-07T12:20:53;1.13;;;0.85;;
22628;SDS011;11481;53.694;9.910;2022-12-07T12:23:37;8.38;;;0.30;;
22628;SDS011;11481;53.694;9.910;2022-12-07T12:33:55;0.20;;;0.20;;
22628;SDS011;11481;53.694;9.910;2022-12-07T12:39:11;0.00;;;0.00;;
22628;SDS011;11481;53.694;9.910;2022-12-07T12:51:47;5.05;;;0.30;;
22628;SDS011;11481;53.694;9.910;2022-12-07T12:54:24;0.73;;;0.45;;
22628;SDS011;11481;53.694;9.910;2022-12-07T13:04:53;0.00;;;0.00;;
22628;SDS011;11481;53.694;9.910;2022-12-07T13:15:35;0.00;;;0.00;;
22628;SDS011;11481;53.694;9.910;2022-12-07T13:20:56;0.00;;;0.00;;
22628;SDS011;11481;53.694;9.910;2022-12-07T13:26:02;0.00;;;0.00;;
22628;SDS011;11481;53.694;9.910;2022-12-07T13:29:37;4.95;;;0.52;;
22628;SDS011;11481;53.694;9.910;2022-12-07T13:31:45;0.43;;;0.43;;
22628;SDS011;11481;53.694;9.910;2022-12-07T13:34:34;0.00;;;0.00;;
22628;SDS011;11481;53.694;9.910;2022-12-07T13:39:51;0.00;;;0.00;;
22628;SDS011;11481;53.694;9.910;2022-12-07T13:42:27;0.00;;;0.00;;
22628;SDS011;11481;53.694;9.910;2022-12-07T13:44:56;2.92;;;0.35;;
22628;SDS011;11481;53.694;9.910;2022-12-07T13:47:32;0.60;;;0.60;;
22628;SDS011;11481;53.694;9.910;2022-12-07T13:52:49;0.10;;;0.10;;
22628;SDS011;11481;53.694;9.910;2022-12-07T13:55:16;0.10;;;0.10;;
22628;SDS011;11481;53.694;9.910;2022-12-07T13:57:44;0.00;;;0.00;;
22628;SDS011;11481;53.694;9.910;2022-12-07T14:00:16;0.47;;;0.13;;
22628;SDS011;11481;53.694;9.910;2022-12-07T14:02:55;0.00;;;0.00;;
22628;SDS011;11481;53.694;9.910;2022-12-07T14:05:26;0.52;;;0.32;;
22628;SDS011;11481;53.694;9.910;2022-12-07T14:10:22;0.00;;;0.00;;
22628;SDS011;11481;53.694;9.910;2022-12-07T14:12:55;0.17;;;0.10;;
22628;SDS011;11481;53.694;9.910;2022-12-07T14:15:24;0.00;;;0.00;;
22628;SDS011;11481;53.694;9.910;2022-12-07T14:17:55;0.40;;;0.38;;
22628;SDS011;11481;53.694;9.910;2022-12-07T14:20:36;0.80;;;0.30;;
22628;SDS011;11481;53.694;9.910;2022-12-07T14:23:05;0.05;;;0.05;;
22628;SDS011;11481;53.694;9.910;2022-12-07T14:25:50;15.93;;;1.00;;
22628;SDS011;11481;53.694;9.910;2022-12-07T14:28:29;0.93;;;0.45;;
22628;SDS011;11481;53.694;9.910;2022-12-07T14:30:58;0.20;;;0.20;;
22628;SDS011;11481;53.694;9.910;2022-12-07T14:33:26;0.00;;;0.00;;
22628;SDS011;11481;53.694;9.910;2022-12-07T14:35:55;0.75;;;0.32;;
22628;SDS011;11481;53.694;9.910;2022-12-07T14:38:24;0.10;;;0.10;;
22628;SDS011;11481;53.694;9.910;2022-12-07T14:40:52;0.00;;;0.00;;
22628;SDS011;11481;53.694;9.910;2022-12-07T14:43:19;0.60;;;0.38;;
22628;SDS011;11481;53.694;9.910;2022-12-07T14:45:46;0.00;;;0.00;;
22628;SDS011;11481;53.694;9.910;2022-12-07T14:48:14;0.00;;;0.00;;
22628;SDS011;11481;53.694;9.910;2022-12-07T14:51:01;0.95;;;0.65;;
22628;SDS011;11481;53.694;9.910;2022-12-07T14:53:49;0.20;;;0.20;;
22628;SDS011;11481;53.694;9.910;2022-12-07T14:56:22;0.22;;;0.20;;
22628;SDS011;11481;53.694;9.910;2022-12-07T14:58:49;0.00;;;0.00;;
22628;SDS011;11481;53.694;9.910;2022-12-07T15:01:16;10.70;;;0.30;;
22628;SDS011;11481;53.694;9.910;2022-12-07T15:03:43;1.08;;;0.20;;
22628;SDS011;11481;53.694;9.910;2022-12-07T15:06:12;0.03;;;0.03;;
22628;SDS011;11481;53.694;9.910;2022-12-07T15:08:41;0.00;;;0.00;;
22628;SDS011;11481;53.694;9.910;2022-12-07T15:11:11;0.00;;;0.00;;
22628;SDS011;11481;53.694;9.910;2022-12-07T15:13:42;0.00;;;0.00;;
22628;SDS011;11481;53.694;9.910;2022-12-07T15:16:27;0.00;;;0.00;;
22628;SDS011;11481;53.694;9.910;2022-12-07T15:19:15;0.05;;;0.05;;
22628;SDS011;11481;53.694;9.910;2022-12-07T15:21:54;0.20;;;0.15;;
22628;SDS011;11481;53.694;9.910;2022-12-07T15:24:21;0.00;;;0.00;;
22628;SDS011;11481;53.694;9.910;2022-12-07T15:26:47;0.00;;;0.00;;
22628;SDS011;11481;53.694;9.910;2022-12-07T15:29:14;0.00;;;0.00;;
22628;SDS011;11481;53.694;9.910;2022-12-07T15:31:48;0.05;;;0.05;;
22628;SDS011;11481;53.694;9.910;2022-12-07T15:34:23;0.05;;;0.05;;
22628;SDS011;11481;53.694;9.910;2022-12-07T15:36:51;0.13;;;0.13;;
22628;SDS011;11481;53.694;9.910;2022-12-07T15:39:17;0.10;;;0.10;;
22628;SDS011;11481;53.694;9.910;2022-12-07T15:41:44;0.00;;;0.00;;
22628;SDS011;11481;53.694;9.910;2022-12-07T15:44:11;0.00;;;0.00;;
22628;SDS011;11481;53.694;9.910;2022-12-07T15:46:57;1.25;;;0.65;;
22628;SDS011;11481;53.694;9.910;2022-12-07T15:49:24;0.00;;;0.00;;
22628;SDS011;11481;53.694;9.910;2022-12-07T15:51:51;0.20;;;0.20;;
22628;SDS011;11481;53.694;9.910;2022-12-07T15:54:22;0.00;;;0.00;;
22628;SDS011;11481;53.694;9.910;2022-12-07T15:56:51;0.00;;;0.00;;
22628;SDS011;11481;53.694;9.910;2022-12-07T15:59:18;0.00;;;0.00;;
22628;SDS011;11481;53.694;9.910;2022-12-07T16:01:45;0.00;;;0.00;;
22628;SDS011;11481;53.694;9.910;2022-12-07T16:04:12;0.10;;;0.10;;
22628;SDS011;11481;53.694;9.910;2022-12-07T16:06:39;0.00;;;0.00;;
22628;SDS011;11481;53.694;9.910;2022-12-07T16:09:05;0.00;;;0.00;;
22628;SDS011;11481;53.694;9.910;2022-12-07T16:11:33;0.00;;;0.00;;
22628;SDS011;11481;53.694;9.910;2022-12-07T16:14:00;0.00;;;0.00;;
22628;SDS011;11481;53.694;9.910;2022-12-07T16:16:26;0.32;;;0.32;;
22628;SDS011;11481;53.694;9.910;2022-12-07T16:18:54;0.10;;;0.10;;
22628;SDS011;11481;53.694;9.910;2022-12-07T16:21:20;0.00;;;0.00;;
22628;SDS011;11481;53.694;9.910;2022-12-07T16:23:51;0.28;;;0.28;;
22628;SDS011;11481;53.694;9.910;2022-12-07T16:26:19;0.57;;;0.40;;
22628;SDS011;11481;53.694;9.910;2022-12-07T16:28:51;0.00;;;0.00;;
22628;SDS011;11481;53.694;9.910;2022-12-07T16:31:20;0.60;;;0.32;;
22628;SDS011;11481;53.694;9.910;2022-12-07T16:33:49;1.73;;;1.63;;
22628;SDS011;11481;53.694;9.910;2022-12-07T16:36:17;2.15;;;0.50;;
22628;SDS011;11481;53.694;9.910;2022-12-07T16:39:04;0.75;;;0.65;;
22628;SDS011;11481;53.694;9.910;2022-12-07T16:41:32;0.47;;;0.30;;
22628;SDS011;11481;53.694;9.910;2022-12-07T16:44:02;0.10;;;0.10;;
22628;SDS011;11481;53.694;9.910;2022-12-07T16:46:31;1.88;;;1.77;;
22628;SDS011;11481;53.694;9.910;2022-12-07T16:49:00;2.72;;;1.48;;
22628;SDS011;11481;53.694;9.910;2022-12-07T16:51:27;0.63;;;0.63;;
22628;SDS011;11481;53.694;9.910;2022-12-07T16:53:53;0.17;;;0.15;;
22628;SDS011;11481;53.694;9.910;2022-12-07T16:56:20;2.53;;;1.10;;
22628;SDS011;11481;53.694;9.910;2022-12-07T16:58:47;2.85;;;1.75;;
22628;SDS011;11481;53.694;9.910;2022-12-07T17:01:19;3.42;;;1.35;;
22628;SDS011;11481;53.694;9.910;2022-12-07T17:03:49;0.75;;;0.55;;
22628;SDS011;11481;53.694;9.910;2022-12-07T17:06:20;1.17;;;0.63;;
22628;SDS011;11481;53.694;9.910;2022-12-07T17:08:50;0.45;;;0.32;;
22628;SDS011;11481;53.694;9.910;2022-12-07T17:11:26;0.52;;;0.52;;
22628;SDS011;11481;53.694;9.910;2022-12-07T17:13:56;0.73;;;0.68;;
22628;SDS011;11481;53.694;9.910;2022-12-07T17:16:42;1.42;;;1.05;;
22628;SDS011;11481;53.694;9.910;2022-12-07T17:19:10;1.65;;;0.65;;
22628;SDS011;11481;53.694;9.910;2022-12-07T17:21:38;3.60;;;1.27;;
22628;SDS011;11481;53.694;9.910;2022-12-07T17:24:05;2.35;;;1.20;;
22628;SDS011;11481;53.694;9.910;2022-12-07T17:26:34;0.13;;;0.13;;
22628;SDS011;11481;53.694;9.910;2022-12-07T17:29:05;0.00;;;0.00;;